KAST/AST METAR and TAF weather

Enter ICAO airport designator
Station Type Date Time Source
KAST METAR 2021/07/28 04:55 UTC NOAA

KAST 280455Z AUTO 30007KT 10SM CLR 16/13 A3012 RMK AO2 SLP199 T01560128


Station Type Date Time Source
KAST Decoded METAR 2021/07/28 04:55 UTC NOAA

PORT OF ASTORIA AIRPORT, OR, United States (KAST) 46-09N 123-53W 3M
Jul 28, 2021 - 12:55 AM EDT / 2021.07.28 0455 UTC
Wind: from the WNW (300 degrees) at 8 MPH (7 KT):0
Visibility: 10 mile(s):0
Sky conditions: clear
Temperature: 60.1 F (15.6 C)
Dew Point: 55.0 F (12.8 C)
Relative Humidity: 83%
Pressure (altimeter): 30.12 in. Hg (1019 hPa)
ob: KAST 280455Z AUTO 30007KT 10SM CLR 16/13 A3012 RMK AO2 SLP199 T01560128
cycle: 5

Station Type Date Time Source
KAST TAF 2021/07/28 06:22 UTC NOAA

TAF KAST 280520Z 2806/2906 31012KT P6SM SKC
FM280800 32006KT 6SM BR SCT006 BKN011
FM281700 32010KT P6SM FEW010 BKN250
FM282000 32011G20KT P6SM SKC
FM290500 31008KT P6SM BKN100

Example: see airport list